createdAt,value
2023-04-13T00:00:54.928Z,56.85
2023-04-13T00:03:24.388Z,56.86
2023-04-13T00:05:59.688Z,57.50
2023-04-13T00:08:30.860Z,57.11
2023-04-13T00:11:00.130Z,57.17
2023-04-13T00:13:30.467Z,57.65
2023-04-13T00:16:01.515Z,57.39
2023-04-13T00:18:31.423Z,57.84
2023-04-13T00:21:01.292Z,59.07
2023-04-13T00:23:30.202Z,58.41
2023-04-13T00:26:01.742Z,57.66
2023-04-13T00:28:33.288Z,57.93
2023-04-13T00:31:02.940Z,57.65
2023-04-13T00:33:34.126Z,57.87
2023-04-13T00:36:03.992Z,57.54
2023-04-13T00:38:32.891Z,57.67
2023-04-13T00:41:02.252Z,57.73
2023-04-13T00:43:32.624Z,57.46
2023-04-13T00:46:02.405Z,57.32
2023-04-13T00:48:31.418Z,57.42
2023-04-13T00:51:00.534Z,57.36
2023-04-13T00:53:29.838Z,57.08
2023-04-13T00:55:59.390Z,58.15
2023-04-13T00:58:28.867Z,57.80
2023-04-13T01:00:59.432Z,57.62
2023-04-13T01:03:28.495Z,57.07
2023-04-13T01:06:00.606Z,57.90
2023-04-13T01:08:33.228Z,57.02
2023-04-13T01:11:05.928Z,58.11
2023-04-13T01:13:38.936Z,59.06
2023-04-13T01:16:12.947Z,58.99
2023-04-13T01:18:45.321Z,57.43
2023-04-13T01:21:19.492Z,57.25
2023-04-13T01:23:53.058Z,57.08
2023-04-13T01:26:22.761Z,56.94
2023-04-13T01:28:53.929Z,57.83
2023-04-13T01:31:24.966Z,57.20
2023-04-13T01:33:54.982Z,56.95
2023-04-13T01:36:24.783Z,57.16
2023-04-13T01:38:54.286Z,60.06
2023-04-13T01:41:23.853Z,57.47
2023-04-13T01:43:54.516Z,57.29
2023-04-13T01:46:29.210Z,58.71
2023-04-13T01:49:08.884Z,57.87
2023-04-13T01:51:59.209Z,57.34
2023-04-13T01:54:33.822Z,59.55
2023-04-13T01:57:03.464Z,57.69
2023-04-13T01:59:33.748Z,57.18
2023-04-13T02:02:03.315Z,57.17
2023-04-13T02:04:34.885Z,57.90
2023-04-13T02:07:04.044Z,57.05
2023-04-13T02:09:37.948Z,57.07
2023-04-13T02:12:07.493Z,56.99
2023-04-13T02:14:42.822Z,57.04
2023-04-13T02:17:12.022Z,56.89
2023-04-13T02:19:43.970Z,57.09
2023-04-13T02:22:13.419Z,57.10
2023-04-13T02:24:42.420Z,56.93
2023-04-13T02:27:12.568Z,57.12
2023-04-13T02:29:42.943Z,57.22
2023-04-13T02:32:12.347Z,57.44
2023-04-13T02:34:41.703Z,57.33
2023-04-13T02:37:11.882Z,57.19
2023-04-13T02:39:40.989Z,58.31
2023-04-13T02:42:11.788Z,58.23
2023-04-13T02:44:42.140Z,58.00
2023-04-13T02:47:11.665Z,58.42
2023-04-13T02:49:41.424Z,61.95
2023-04-13T02:52:21.625Z,58.46
2023-04-13T02:55:09.789Z,58.07
2023-04-13T02:57:55.659Z,58.77
2023-04-13T03:00:28.787Z,58.29
2023-04-13T03:03:03.879Z,59.98
2023-04-13T03:05:38.916Z,63.73
2023-04-13T03:08:11.814Z,64.94
2023-04-13T03:10:48.611Z,62.38
2023-04-13T03:13:17.924Z,62.15
2023-04-13T03:15:49.151Z,60.94
2023-04-13T03:18:18.429Z,59.74
2023-04-13T03:20:47.394Z,59.63
2023-04-13T03:23:17.426Z,60.14
2023-04-13T03:25:46.570Z,63.99
2023-04-13T03:28:16.230Z,62.62
2023-04-13T03:30:47.547Z,62.39
2023-04-13T03:33:18.197Z,64.44
2023-04-13T03:35:47.643Z,64.81
2023-04-13T03:38:29.368Z,65.96
2023-04-13T03:40:58.305Z,67.01
2023-04-13T03:43:29.879Z,64.42
2023-04-13T03:46:04.974Z,65.22
2023-04-13T03:48:36.765Z,62.74
2023-04-13T03:51:08.592Z,61.59
2023-04-13T03:53:49.277Z,61.34
2023-04-13T03:56:22.611Z,61.20
2023-04-13T03:58:52.677Z,63.28
2023-04-13T04:01:27.414Z,61.77
2023-04-13T04:03:59.244Z,60.62
2023-04-13T04:06:31.444Z,60.33
2023-04-13T04:09:10.806Z,60.20
2023-04-13T04:11:44.797Z,60.20
2023-04-13T04:14:15.330Z,59.95
2023-04-13T04:16:53.225Z,59.97
2023-04-13T04:19:24.144Z,59.63
2023-04-13T04:21:53.191Z,59.69
2023-04-13T04:24:24.094Z,59.61
2023-04-13T04:27:00.557Z,59.60
2023-04-13T04:29:34.192Z,59.43
2023-04-13T04:32:11.221Z,59.49
2023-04-13T04:34:43.308Z,60.07
2023-04-13T04:37:20.613Z,60.57
2023-04-13T04:40:01.747Z,62.28
2023-04-13T04:42:32.846Z,62.07
2023-04-13T04:45:05.895Z,63.44
2023-04-13T04:47:43.764Z,62.19
2023-04-13T04:50:21.021Z,60.88
2023-04-13T04:52:56.358Z,60.38
2023-04-13T04:55:26.906Z,59.85
2023-04-13T04:57:56.188Z,59.65
2023-04-13T05:00:26.660Z,59.74
2023-04-13T05:03:14.888Z,59.75
2023-04-13T05:05:50.761Z,60.06
2023-04-13T05:08:28.622Z,59.36
2023-04-13T05:10:57.967Z,59.40
2023-04-13T05:13:27.432Z,59.24
2023-04-13T05:16:10.755Z,59.32
2023-04-13T05:18:47.901Z,59.39
2023-04-13T05:21:30.224Z,59.48
2023-04-13T05:24:01.805Z,59.47
2023-04-13T05:26:31.832Z,59.57
2023-04-13T05:29:03.206Z,59.55
2023-04-13T05:31:36.613Z,59.54
2023-04-13T05:34:06.302Z,59.47
2023-04-13T05:36:38.806Z,59.53
2023-04-13T05:39:13.024Z,59.98
2023-04-13T05:41:42.968Z,59.88
2023-04-13T05:44:12.091Z,59.60
2023-04-13T05:46:42.392Z,59.51
2023-04-13T05:49:12.242Z,59.74
2023-04-13T05:51:43.709Z,59.68
2023-04-13T05:54:13.973Z,59.69
2023-04-13T05:56:48.560Z,59.81
2023-04-13T05:59:17.573Z,59.97
2023-04-13T06:01:51.624Z,59.95
2023-04-13T06:04:22.530Z,59.95
2023-04-13T06:06:54.975Z,60.22
2023-04-13T06:09:24.125Z,61.05
2023-04-13T06:11:54.380Z,60.81
2023-04-13T06:14:24.976Z,60.49
2023-04-13T06:16:54.267Z,61.94
2023-04-13T06:19:23.377Z,61.20
2023-04-13T06:21:53.903Z,61.43
2023-04-13T06:24:23.871Z,61.29
2023-04-13T06:26:53.145Z,61.46
2023-04-13T06:29:22.476Z,61.74
2023-04-13T06:32:04.462Z,63.77
2023-04-13T06:34:33.739Z,63.46
2023-04-13T06:37:05.281Z,63.38
2023-04-13T06:39:43.090Z,62.10
2023-04-13T06:42:13.790Z,62.66
2023-04-13T06:44:54.264Z,63.41
2023-04-13T06:47:25.348Z,63.20
2023-04-13T06:49:56.210Z,65.48
2023-04-13T06:52:27.930Z,63.00
2023-04-13T06:54:56.888Z,64.11
2023-04-13T06:57:34.018Z,63.32
2023-04-13T07:00:02.921Z,62.57
2023-04-13T07:02:33.362Z,62.57
2023-04-13T07:05:05.496Z,62.15
2023-04-13T07:07:37.426Z,62.21
2023-04-13T07:10:07.995Z,62.62
2023-04-13T07:12:39.403Z,63.96
2023-04-13T07:15:09.829Z,63.18
2023-04-13T07:17:42.917Z,62.42
2023-04-13T07:20:14.586Z,62.61
2023-04-13T07:22:45.661Z,64.07
2023-04-13T07:25:15.225Z,63.69
2023-04-13T07:27:44.620Z,64.49
2023-04-13T07:30:13.881Z,64.64
2023-04-13T07:32:47.161Z,64.75
2023-04-13T07:35:16.166Z,64.06
2023-04-13T07:37:51.511Z,64.86
2023-04-13T07:40:22.682Z,64.39
2023-04-13T07:42:55.946Z,63.96
2023-04-13T07:45:25.515Z,63.61
2023-04-13T07:47:54.846Z,63.84
2023-04-13T07:50:24.576Z,63.90
2023-04-13T07:52:55.774Z,63.49
2023-04-13T07:55:26.160Z,63.73
2023-04-13T07:57:55.666Z,63.31
2023-04-13T08:00:24.608Z,63.83
2023-04-13T08:02:58.890Z,62.60
2023-04-13T08:05:29.756Z,62.58
2023-04-13T08:08:01.775Z,62.58
2023-04-13T08:10:31.812Z,62.21
2023-04-13T08:13:05.013Z,62.29
2023-04-13T08:15:34.078Z,62.17
2023-04-13T08:18:03.900Z,61.66
2023-04-13T08:20:35.545Z,61.79
2023-04-13T08:23:06.671Z,60.80
2023-04-13T08:25:40.731Z,60.05
2023-04-13T08:28:10.276Z,60.12
2023-04-13T08:30:39.157Z,60.30
2023-04-13T08:33:09.122Z,59.93
2023-04-13T08:35:39.806Z,60.16
2023-04-13T08:38:15.223Z,60.81
2023-04-13T08:40:50.270Z,59.84
2023-04-13T08:43:26.054Z,59.81
2023-04-13T08:45:54.966Z,59.81
2023-04-13T08:48:24.332Z,60.11
2023-04-13T08:50:54.686Z,59.92
2023-04-13T08:53:25.445Z,59.11
2023-04-13T08:55:55.935Z,58.64
2023-04-13T08:58:25.891Z,58.80
2023-04-13T09:00:55.082Z,58.18
2023-04-13T09:03:25.721Z,58.46
2023-04-13T09:05:59.048Z,58.44
2023-04-13T09:08:34.802Z,58.53
2023-04-13T09:11:06.522Z,58.52
2023-04-13T09:13:35.932Z,57.00
2023-04-13T09:16:05.290Z,56.66
2023-04-13T09:18:49.646Z,57.50
2023-04-13T09:21:19.324Z,57.92
2023-04-13T09:24:00.123Z,58.19
2023-04-13T09:26:29.232Z,57.78
2023-04-13T09:28:59.719Z,57.87
2023-04-13T09:31:29.256Z,56.79
2023-04-13T09:33:58.459Z,57.87
2023-04-13T09:36:29.554Z,55.58
2023-04-13T09:39:00.412Z,55.94
2023-04-13T09:41:30.621Z,55.66
2023-04-13T09:44:00.314Z,55.72
2023-04-13T09:46:29.268Z,54.64
2023-04-13T09:49:04.999Z,54.98
2023-04-13T09:51:37.206Z,53.87
2023-04-13T09:54:08.250Z,53.30
2023-04-13T09:56:43.995Z,52.36
2023-04-13T09:59:13.949Z,54.58
2023-04-13T10:01:43.064Z,53.94
2023-04-13T10:04:12.515Z,55.98
2023-04-13T10:06:43.244Z,56.03
2023-04-13T10:09:15.075Z,54.89
2023-04-13T10:11:46.632Z,54.49
2023-04-13T10:14:17.613Z,54.22
2023-04-13T10:16:54.759Z,53.83
2023-04-13T10:19:25.589Z,55.20
2023-04-13T10:21:55.502Z,54.89
2023-04-13T10:24:26.334Z,52.51
2023-04-13T10:26:56.355Z,54.54
2023-04-13T10:29:29.316Z,53.74
2023-04-13T10:32:03.609Z,54.44
2023-04-13T10:34:34.359Z,54.42
2023-04-13T10:37:06.751Z,53.10
2023-04-13T10:39:37.807Z,55.02
2023-04-13T10:42:07.920Z,53.24
2023-04-13T10:44:43.931Z,52.90
2023-04-13T10:47:13.733Z,52.70
2023-04-13T10:49:43.078Z,53.28
2023-04-13T10:52:12.397Z,53.40
2023-04-13T10:54:43.915Z,52.16
2023-04-13T10:57:13.368Z,52.25
2023-04-13T11:02:16.677Z,52.25
2023-04-13T11:04:47.444Z,53.02
2023-04-13T11:07:17.614Z,53.22
2023-04-13T11:09:50.834Z,53.04
2023-04-13T11:12:20.523Z,52.07
2023-04-13T11:14:50.986Z,52.54
2023-04-13T11:17:21.287Z,53.24
2023-04-13T11:19:51.514Z,51.71
2023-04-13T11:22:22.939Z,51.25
2023-04-13T11:24:53.789Z,51.60
2023-04-13T11:27:23.343Z,51.15
2023-04-13T11:29:58.321Z,51.46
2023-04-13T11:32:28.056Z,49.74
2023-04-13T11:35:07.063Z,50.61
2023-04-13T11:37:37.756Z,49.49
2023-04-13T11:40:15.139Z,50.47
2023-04-13T11:42:45.175Z,50.45
2023-04-13T11:45:15.016Z,49.53
2023-04-13T11:47:44.301Z,47.47
2023-04-13T11:50:15.427Z,48.40
2023-04-13T11:52:46.591Z,50.84
2023-04-13T11:55:23.339Z,49.86
2023-04-13T11:57:53.792Z,47.72
2023-04-13T12:00:24.692Z,48.89
2023-04-13T12:05:27.866Z,48.71
2023-04-13T12:07:58.994Z,49.81
2023-04-13T12:10:39.342Z,50.84
2023-04-13T12:16:05.363Z,49.94
2023-04-13T12:18:46.609Z,49.32
2023-04-13T12:21:17.322Z,51.29
2023-04-13T12:24:05.782Z,48.87
2023-04-13T12:29:09.929Z,50.04
2023-04-13T12:31:39.780Z,48.66
2023-04-13T12:34:12.221Z,49.21
2023-04-13T12:36:41.725Z,46.34
2023-04-13T12:39:11.337Z,48.87
2023-04-13T12:41:41.997Z,48.92
2023-04-13T12:44:11.295Z,48.35
2023-04-13T12:46:40.485Z,49.18
2023-04-13T12:49:09.384Z,47.82
2023-04-13T12:51:38.658Z,48.38
2023-04-13T12:54:13.145Z,47.47
2023-04-13T12:56:43.990Z,47.65
2023-04-13T12:59:13.019Z,47.58
2023-04-13T13:01:42.325Z,47.08
2023-04-13T13:04:11.303Z,47.88
2023-04-13T13:06:40.526Z,47.77
2023-04-13T13:09:09.514Z,46.51
2023-04-13T13:11:38.648Z,47.55
2023-04-13T13:14:11.157Z,47.94
2023-04-13T13:16:40.934Z,46.08
2023-04-13T13:19:10.178Z,47.98
2023-04-13T13:21:39.403Z,47.41
2023-04-13T13:24:08.517Z,46.95
2023-04-13T13:27:00.162Z,45.62
2023-04-13T13:29:30.949Z,46.78
2023-04-13T13:32:00.551Z,47.67
2023-04-13T13:34:29.498Z,46.67
2023-04-13T13:36:59.019Z,44.62
2023-04-13T13:39:28.030Z,46.33
2023-04-13T13:41:58.475Z,44.66
2023-04-13T13:44:28.936Z,47.76
2023-04-13T13:46:58.397Z,48.50
2023-04-13T13:49:29.289Z,48.88
2023-04-13T13:52:08.225Z,46.35
2023-04-13T13:54:45.730Z,47.42
2023-04-13T13:57:14.950Z,46.88
2023-04-13T13:59:47.442Z,46.38
2023-04-13T14:02:18.404Z,47.33
2023-04-13T14:04:47.361Z,46.69
2023-04-13T14:07:16.665Z,47.30
2023-04-13T14:09:46.152Z,45.13
2023-04-13T14:12:15.444Z,47.19
2023-04-13T14:14:45.867Z,43.64
2023-04-13T14:17:15.073Z,46.02
2023-04-13T14:19:44.066Z,46.24
2023-04-13T14:22:13.304Z,46.86
2023-04-13T14:24:42.116Z,45.11
2023-04-13T14:27:12.374Z,41.78
2023-04-13T14:29:41.436Z,45.83
2023-04-13T14:32:12.079Z,44.51
2023-04-13T14:34:41.409Z,44.75
2023-04-13T14:37:11.013Z,41.92
2023-04-13T14:39:40.009Z,45.04
2023-04-13T14:42:09.156Z,46.11
2023-04-13T14:44:40.318Z,45.41
2023-04-13T14:47:11.160Z,40.83
2023-04-13T14:49:40.208Z,43.09
2023-04-13T14:52:09.537Z,41.16
2023-04-13T14:54:39.092Z,44.26
2023-04-13T14:57:10.043Z,41.85
2023-04-13T14:59:39.036Z,43.36
2023-04-13T15:02:08.732Z,41.94
2023-04-13T15:04:39.155Z,42.08
2023-04-13T15:07:09.385Z,40.30
2023-04-13T15:09:38.712Z,39.80
2023-04-13T15:12:12.674Z,42.33
2023-04-13T15:14:46.625Z,42.04
2023-04-13T15:17:16.452Z,42.02
2023-04-13T15:19:46.784Z,41.31
2023-04-13T15:22:16.397Z,37.11
2023-04-13T15:24:45.306Z,39.08
2023-04-13T15:27:15.255Z,39.67
2023-04-13T15:29:44.345Z,40.13
2023-04-13T15:32:13.605Z,41.79
2023-04-13T15:34:42.483Z,39.58
2023-04-13T15:37:13.430Z,41.39
2023-04-13T15:39:42.876Z,41.23
2023-04-13T15:42:12.009Z,41.12
2023-04-13T15:44:41.089Z,39.12
2023-04-13T15:47:10.597Z,41.45
2023-04-13T15:49:39.711Z,41.13
2023-04-13T15:52:08.879Z,41.89
2023-04-13T15:54:39.226Z,39.34
2023-04-13T15:57:08.546Z,41.75
2023-04-13T15:59:37.356Z,41.32
2023-04-13T16:02:06.647Z,42.09
2023-04-13T16:04:37.061Z,41.63
2023-04-13T16:07:13.537Z,40.03
2023-04-13T16:09:45.366Z,40.84
2023-04-13T16:12:14.693Z,41.40
2023-04-13T16:14:44.766Z,40.89
2023-04-13T16:17:14.833Z,41.56
2023-04-13T16:19:47.408Z,41.50
2023-04-13T16:22:17.970Z,41.89
2023-04-13T16:24:48.504Z,41.57
2023-04-13T16:27:17.735Z,42.10
2023-04-13T16:29:46.663Z,41.56
2023-04-13T16:32:16.029Z,41.51
2023-04-13T16:34:44.959Z,42.73
2023-04-13T16:37:14.265Z,42.10
2023-04-13T16:39:44.420Z,42.60
2023-04-13T16:42:17.118Z,41.98
2023-04-13T16:44:46.303Z,41.29
2023-04-13T16:47:15.773Z,42.32
2023-04-13T16:49:44.679Z,41.47
2023-04-13T16:52:14.021Z,41.13
2023-04-13T16:54:43.792Z,40.56
2023-04-13T16:57:13.613Z,41.79
2023-04-13T16:59:43.970Z,41.28
2023-04-13T17:02:30.303Z,41.70
2023-04-13T17:05:01.108Z,41.67
2023-04-13T17:07:30.601Z,41.72
2023-04-13T17:09:59.555Z,42.16
2023-04-13T17:12:28.948Z,41.96
2023-04-13T17:15:00.991Z,42.07
2023-04-13T17:17:30.683Z,42.59
2023-04-13T17:19:59.700Z,42.68
2023-04-13T17:22:29.112Z,42.70
2023-04-13T17:25:02.213Z,42.89
2023-04-13T17:27:32.460Z,43.70
2023-04-13T17:30:04.700Z,43.55
2023-04-13T17:32:37.250Z,43.91
2023-04-13T17:35:06.538Z,44.19
2023-04-13T17:37:36.718Z,44.55
2023-04-13T17:40:06.261Z,44.33
2023-04-13T17:42:38.116Z,44.79
2023-04-13T17:45:09.901Z,45.09
2023-04-13T17:47:43.497Z,44.50
2023-04-13T17:50:14.175Z,44.54
2023-04-13T17:52:44.270Z,44.82
2023-04-13T17:55:13.589Z,44.89
2023-04-13T17:57:42.705Z,45.25
2023-04-13T18:00:14.106Z,45.29
2023-04-13T18:02:44.737Z,45.49
2023-04-13T18:05:16.350Z,45.90
2023-04-13T18:07:48.255Z,46.26
2023-04-13T18:10:18.313Z,46.45
2023-04-13T18:12:50.660Z,46.44
2023-04-13T18:15:21.418Z,46.26
2023-04-13T18:17:50.893Z,46.47
2023-04-13T18:20:20.990Z,46.67
2023-04-13T18:22:50.791Z,46.90
2023-04-13T18:25:19.813Z,46.86
2023-04-13T18:27:52.059Z,47.20
2023-04-13T18:30:22.770Z,47.22
2023-04-13T18:32:55.032Z,46.71
2023-04-13T18:35:24.205Z,47.07
2023-04-13T18:37:53.311Z,46.52
2023-04-13T18:40:22.527Z,46.99
2023-04-13T18:42:51.714Z,47.03
2023-04-13T18:45:22.653Z,47.29
2023-04-13T18:47:52.234Z,47.12
2023-04-13T18:50:21.452Z,47.48
2023-04-13T18:52:52.822Z,47.52
2023-04-13T18:55:23.175Z,47.48
2023-04-13T18:57:53.493Z,47.66
2023-04-13T19:00:24.370Z,47.90
2023-04-13T19:02:53.949Z,47.80
2023-04-13T19:05:23.327Z,47.67
2023-04-13T19:07:57.264Z,48.12
2023-04-13T19:10:26.406Z,48.15
2023-04-13T19:12:55.716Z,48.34
2023-04-13T19:15:27.694Z,49.93
2023-04-13T19:17:57.494Z,51.62
2023-04-13T19:20:26.567Z,51.91
2023-04-13T19:22:56.317Z,52.72
2023-04-13T19:25:25.568Z,50.04
2023-04-13T19:27:57.580Z,49.42
2023-04-13T19:30:28.290Z,49.34
2023-04-13T19:32:59.392Z,49.59
2023-04-13T19:35:37.015Z,49.53
2023-04-13T19:38:06.926Z,49.23
2023-04-13T19:40:36.061Z,49.44
2023-04-13T19:43:05.824Z,49.41
2023-04-13T19:45:36.584Z,49.46
2023-04-13T19:48:06.617Z,49.53
2023-04-13T19:50:36.511Z,49.66
2023-04-13T19:53:05.678Z,49.45
2023-04-13T19:55:34.840Z,49.74
2023-04-13T19:58:04.642Z,49.60
2023-04-13T20:00:34.159Z,50.06
2023-04-13T20:03:04.985Z,49.92
2023-04-13T20:05:38.204Z,49.93
2023-04-13T20:08:08.944Z,50.26
2023-04-13T20:10:37.885Z,50.07
2023-04-13T20:13:07.407Z,49.92
2023-04-13T20:15:37.615Z,49.67
2023-04-13T20:18:08.882Z,49.98
2023-04-13T20:20:39.438Z,49.86
2023-04-13T20:23:09.615Z,50.00
2023-04-13T20:25:38.842Z,50.27
2023-04-13T20:28:10.181Z,50.01
2023-04-13T20:30:39.480Z,50.25
2023-04-13T20:33:10.195Z,50.98
2023-04-13T20:35:39.195Z,50.60
2023-04-13T20:38:08.274Z,50.64
2023-04-13T20:40:37.583Z,50.15
2023-04-13T20:43:08.348Z,50.24
2023-04-13T20:45:38.371Z,51.12
2023-04-13T20:50:46.152Z,51.69
2023-04-13T20:53:17.329Z,52.50
2023-04-13T20:55:46.406Z,52.62
2023-04-13T20:58:17.175Z,51.66
2023-04-13T21:00:46.226Z,52.90
2023-04-13T21:03:15.605Z,53.32
2023-04-13T21:05:46.097Z,51.82
2023-04-13T21:08:15.298Z,53.49
2023-04-13T21:10:44.465Z,53.11
2023-04-13T21:13:16.282Z,53.72
2023-04-13T21:15:45.654Z,53.34
2023-04-13T21:18:14.788Z,52.52
2023-04-13T21:20:43.915Z,52.50
2023-04-13T21:23:14.399Z,51.74
2023-04-13T21:25:44.646Z,51.66
2023-04-13T21:28:14.069Z,51.75
2023-04-13T21:30:42.994Z,51.52
2023-04-13T21:33:12.120Z,51.45
2023-04-13T21:35:41.073Z,51.41
2023-04-13T21:38:10.262Z,51.39
2023-04-13T21:40:41.073Z,51.66
2023-04-13T21:43:10.445Z,51.41
2023-04-13T21:45:39.300Z,52.69
2023-04-13T21:48:08.703Z,51.88
2023-04-13T21:50:37.779Z,51.99
2023-04-13T21:53:07.176Z,51.98
2023-04-13T21:55:36.235Z,53.96
2023-04-13T21:58:06.708Z,52.58
2023-04-13T22:00:35.800Z,53.24
2023-04-13T22:03:05.147Z,52.33
2023-04-13T22:05:34.242Z,56.32
2023-04-13T22:08:04.314Z,54.93
2023-04-13T22:10:33.353Z,55.40
2023-04-13T22:13:02.503Z,56.99
2023-04-13T22:15:32.930Z,54.75
2023-04-13T22:18:02.422Z,54.51
2023-04-13T22:20:31.281Z,53.88
2023-04-13T22:23:00.523Z,55.86
2023-04-13T22:25:29.346Z,55.44
2023-04-13T22:27:58.627Z,57.24
2023-04-13T22:30:27.467Z,54.82
2023-04-13T22:32:58.194Z,56.29
2023-04-13T22:35:27.435Z,54.67
2023-04-13T22:37:56.659Z,57.06
2023-04-13T22:40:25.936Z,58.05
2023-04-13T22:42:55.013Z,57.25
2023-04-13T22:45:23.979Z,56.44
2023-04-13T22:47:53.953Z,55.20
2023-04-13T22:50:24.557Z,55.18
2023-04-13T22:52:54.346Z,58.63
2023-04-13T22:55:23.537Z,56.53
2023-04-13T22:57:52.592Z,56.85
2023-04-13T23:00:21.939Z,59.41
2023-04-13T23:02:52.900Z,56.63
2023-04-13T23:05:22.248Z,55.59
2023-04-13T23:07:52.812Z,55.52
2023-04-13T23:10:21.834Z,55.65
2023-04-13T23:12:50.949Z,57.20
2023-04-13T23:15:19.899Z,57.71
2023-04-13T23:17:48.973Z,58.34
2023-04-13T23:20:18.168Z,58.17
2023-04-13T23:22:47.308Z,57.15
2023-04-13T23:25:17.702Z,56.21
2023-04-13T23:27:47.104Z,56.30
2023-04-13T23:30:16.154Z,59.79
2023-04-13T23:32:45.601Z,61.60
2023-04-13T23:35:14.319Z,61.38
2023-04-13T23:37:45.448Z,57.94
2023-04-13T23:40:14.372Z,60.64
2023-04-13T23:42:45.258Z,59.86
2023-04-13T23:45:14.131Z,60.94
2023-04-13T23:47:43.221Z,58.30
2023-04-13T23:50:12.528Z,58.71
2023-04-13T23:52:41.895Z,57.54
2023-04-13T23:55:10.864Z,58.84
2023-04-13T23:57:39.914Z,57.41
